sensor_id;sensor_type;location;lat;lon;timestamp;temperature;humidity
24103;DHT22;12278;53.058;9.028;2024-03-22T00:00:57;9.60;99.90
24103;DHT22;12278;53.058;9.028;2024-03-22T00:04:58;9.60;99.90
24103;DHT22;12278;53.058;9.028;2024-03-22T00:08:59;9.60;99.90
24103;DHT22;12278;53.058;9.028;2024-03-22T00:12:59;9.70;99.90
24103;DHT22;12278;53.058;9.028;2024-03-22T00:17:00;9.70;99.90
24103;DHT22;12278;53.058;9.028;2024-03-22T00:21:00;9.70;99.90
24103;DHT22;12278;53.058;9.028;2024-03-22T00:25:02;9.70;99.90
24103;DHT22;12278;53.058;9.028;2024-03-22T00:29:03;9.70;99.90
24103;DHT22;12278;53.058;9.028;2024-03-22T00:33:04;9.70;99.90
24103;DHT22;12278;53.058;9.028;2024-03-22T00:37:04;9.70;99.90
24103;DHT22;12278;53.058;9.028;2024-03-22T00:41:05;9.80;99.90
24103;DHT22;12278;53.058;9.028;2024-03-22T00:45:06;9.70;99.90
24103;DHT22;12278;53.058;9.028;2024-03-22T00:49:07;9.80;99.90
24103;DHT22;12278;53.058;9.028;2024-03-22T00:53:08;9.80;99.90
24103;DHT22;12278;53.058;9.028;2024-03-22T00:57:10;9.80;99.90
24103;DHT22;12278;53.058;9.028;2024-03-22T01:01:10;9.90;99.90
24103;DHT22;12278;53.058;9.028;2024-03-22T01:05:11;9.80;99.90
24103;DHT22;12278;53.058;9.028;2024-03-22T01:09:11;9.80;99.90
24103;DHT22;12278;53.058;9.028;2024-03-22T01:13:12;9.90;99.90
24103;DHT22;12278;53.058;9.028;2024-03-22T01:17:12;9.90;99.90
24103;DHT22;12278;53.058;9.028;2024-03-22T01:21:13;9.90;99.90
24103;DHT22;12278;53.058;9.028;2024-03-22T01:25:13;9.90;99.90
24103;DHT22;12278;53.058;9.028;2024-03-22T01:29:14;9.90;99.90
24103;DHT22;12278;53.058;9.028;2024-03-22T01:33:14;9.90;99.90
24103;DHT22;12278;53.058;9.028;2024-03-22T01:37:15;9.90;99.90
24103;DHT22;12278;53.058;9.028;2024-03-22T01:41:16;10.00;99.90
24103;DHT22;12278;53.058;9.028;2024-03-22T01:45:18;9.90;99.90
24103;DHT22;12278;53.058;9.028;2024-03-22T01:49:18;10.00;99.90
24103;DHT22;12278;53.058;9.028;2024-03-22T01:53:19;9.90;99.90
24103;DHT22;12278;53.058;9.028;2024-03-22T01:57:20;10.00;99.90
24103;DHT22;12278;53.058;9.028;2024-03-22T02:01:21;10.00;99.90
24103;DHT22;12278;53.058;9.028;2024-03-22T02:05:21;10.00;99.90
24103;DHT22;12278;53.058;9.028;2024-03-22T02:09:24;9.90;99.90
24103;DHT22;12278;53.058;9.028;2024-03-22T02:13:25;10.00;99.90
24103;DHT22;12278;53.058;9.028;2024-03-22T02:17:25;10.00;99.90
24103;DHT22;12278;53.058;9.028;2024-03-22T02:21:26;10.00;99.90
24103;DHT22;12278;53.058;9.028;2024-03-22T02:25:27;10.00;99.90
24103;DHT22;12278;53.058;9.028;2024-03-22T02:29:27;10.00;99.90
24103;DHT22;12278;53.058;9.028;2024-03-22T02:33:28;10.00;99.90
24103;DHT22;12278;53.058;9.028;2024-03-22T02:37:29;10.10;99.90
24103;DHT22;12278;53.058;9.028;2024-03-22T02:41:29;10.00;99.90
24103;DHT22;12278;53.058;9.028;2024-03-22T02:45:30;10.00;99.90
24103;DHT22;12278;53.058;9.028;2024-03-22T02:49:31;10.00;99.90
24103;DHT22;12278;53.058;9.028;2024-03-22T02:53:31;10.10;99.90
24103;DHT22;12278;53.058;9.028;2024-03-22T02:57:32;10.10;99.90
24103;DHT22;12278;53.058;9.028;2024-03-22T03:01:32;10.10;99.90
24103;DHT22;12278;53.058;9.028;2024-03-22T03:05:33;10.10;99.90
24103;DHT22;12278;53.058;9.028;2024-03-22T03:09:33;10.20;99.90
24103;DHT22;12278;53.058;9.028;2024-03-22T03:13:34;10.10;99.90
24103;DHT22;12278;53.058;9.028;2024-03-22T03:17:34;10.10;99.90
24103;DHT22;12278;53.058;9.028;2024-03-22T03:21:35;10.10;99.90
24103;DHT22;12278;53.058;9.028;2024-03-22T03:25:35;10.10;99.90
24103;DHT22;12278;53.058;9.028;2024-03-22T03:29:36;10.20;99.90
24103;DHT22;12278;53.058;9.028;2024-03-22T03:33:37;10.20;99.90
24103;DHT22;12278;53.058;9.028;2024-03-22T03:37:37;10.20;99.90
24103;DHT22;12278;53.058;9.028;2024-03-22T03:41:38;10.20;99.90
24103;DHT22;12278;53.058;9.028;2024-03-22T03:45:38;10.20;99.90
24103;DHT22;12278;53.058;9.028;2024-03-22T03:49:39;10.20;99.90
24103;DHT22;12278;53.058;9.028;2024-03-22T03:53:40;10.20;99.90
24103;DHT22;12278;53.058;9.028;2024-03-22T03:57:40;10.20;99.90
24103;DHT22;12278;53.058;9.028;2024-03-22T04:01:41;10.30;99.90
24103;DHT22;12278;53.058;9.028;2024-03-22T04:05:41;10.30;99.90
24103;DHT22;12278;53.058;9.028;2024-03-22T04:09:42;10.30;99.90
24103;DHT22;12278;53.058;9.028;2024-03-22T04:13:43;10.30;99.90
24103;DHT22;12278;53.058;9.028;2024-03-22T04:17:43;10.40;99.90
24103;DHT22;12278;53.058;9.028;2024-03-22T04:21:44;10.40;99.90
24103;DHT22;12278;53.058;9.028;2024-03-22T04:25:58;10.40;99.90
24103;DHT22;12278;53.058;9.028;2024-03-22T04:29:59;10.40;99.90
24103;DHT22;12278;53.058;9.028;2024-03-22T04:34:00;10.40;99.90
24103;DHT22;12278;53.058;9.028;2024-03-22T04:38:01;10.40;99.90
24103;DHT22;12278;53.058;9.028;2024-03-22T04:42:02;10.50;99.90
24103;DHT22;12278;53.058;9.028;2024-03-22T04:46:02;10.50;99.90
24103;DHT22;12278;53.058;9.028;2024-03-22T04:50:03;10.50;99.90
24103;DHT22;12278;53.058;9.028;2024-03-22T04:54:04;10.50;99.90
24103;DHT22;12278;53.058;9.028;2024-03-22T04:58:05;10.50;99.90
24103;DHT22;12278;53.058;9.028;2024-03-22T05:02:05;10.50;99.90
24103;DHT22;12278;53.058;9.028;2024-03-22T05:06:06;10.50;99.90
24103;DHT22;12278;53.058;9.028;2024-03-22T05:10:07;10.50;99.90
24103;DHT22;12278;53.058;9.028;2024-03-22T05:14:09;10.50;99.90
24103;DHT22;12278;53.058;9.028;2024-03-22T05:18:10;10.50;99.90
24103;DHT22;12278;53.058;9.028;2024-03-22T05:22:10;10.50;99.90
24103;DHT22;12278;53.058;9.028;2024-03-22T05:26:11;10.50;99.90
24103;DHT22;12278;53.058;9.028;2024-03-22T05:30:12;10.50;99.90
24103;DHT22;12278;53.058;9.028;2024-03-22T05:34:16;10.60;99.90
24103;DHT22;12278;53.058;9.028;2024-03-22T05:38:16;10.60;99.90
24103;DHT22;12278;53.058;9.028;2024-03-22T05:42:17;10.60;99.90
24103;DHT22;12278;53.058;9.028;2024-03-22T05:46:18;10.60;99.90
24103;DHT22;12278;53.058;9.028;2024-03-22T05:50:18;10.60;99.90
24103;DHT22;12278;53.058;9.028;2024-03-22T05:54:21;10.70;99.90
24103;DHT22;12278;53.058;9.028;2024-03-22T05:58:21;10.70;99.90
24103;DHT22;12278;53.058;9.028;2024-03-22T06:02:22;10.70;99.90
24103;DHT22;12278;53.058;9.028;2024-03-22T06:06:23;10.80;99.90
24103;DHT22;12278;53.058;9.028;2024-03-22T06:10:26;10.80;99.90
24103;DHT22;12278;53.058;9.028;2024-03-22T06:14:26;10.90;99.90
24103;DHT22;12278;53.058;9.028;2024-03-22T06:18:27;10.90;99.90
24103;DHT22;12278;53.058;9.028;2024-03-22T06:22:28;11.00;99.90
24103;DHT22;12278;53.058;9.028;2024-03-22T06:26:28;11.00;99.90
24103;DHT22;12278;53.058;9.028;2024-03-22T06:30:29;11.10;99.90
24103;DHT22;12278;53.058;9.028;2024-03-22T06:34:29;11.10;99.90
24103;DHT22;12278;53.058;9.028;2024-03-22T06:38:30;11.10;99.90
24103;DHT22;12278;53.058;9.028;2024-03-22T06:42:31;11.10;99.90
24103;DHT22;12278;53.058;9.028;2024-03-22T06:46:31;11.10;99.90
24103;DHT22;12278;53.058;9.028;2024-03-22T06:50:32;11.10;99.90
24103;DHT22;12278;53.058;9.028;2024-03-22T06:54:33;11.10;99.90
24103;DHT22;12278;53.058;9.028;2024-03-22T06:58:33;11.10;99.90
24103;DHT22;12278;53.058;9.028;2024-03-22T07:02:34;11.10;99.90
24103;DHT22;12278;53.058;9.028;2024-03-22T07:06:35;11.10;99.90
24103;DHT22;12278;53.058;9.028;2024-03-22T07:10:39;11.10;99.90
24103;DHT22;12278;53.058;9.028;2024-03-22T07:14:39;11.10;99.90
24103;DHT22;12278;53.058;9.028;2024-03-22T07:18:40;11.10;99.90
24103;DHT22;12278;53.058;9.028;2024-03-22T07:22:41;11.10;99.90
24103;DHT22;12278;53.058;9.028;2024-03-22T07:26:41;11.10;99.90
24103;DHT22;12278;53.058;9.028;2024-03-22T07:30:42;11.10;99.90
24103;DHT22;12278;53.058;9.028;2024-03-22T07:34:46;11.00;99.90
24103;DHT22;12278;53.058;9.028;2024-03-22T07:38:47;11.00;99.90
24103;DHT22;12278;53.058;9.028;2024-03-22T07:42:49;11.00;99.90
24103;DHT22;12278;53.058;9.028;2024-03-22T07:46:50;11.00;99.90
24103;DHT22;12278;53.058;9.028;2024-03-22T07:51:01;11.00;99.90
24103;DHT22;12278;53.058;9.028;2024-03-22T07:55:05;11.00;99.90
24103;DHT22;12278;53.058;9.028;2024-03-22T07:59:06;11.00;99.90
24103;DHT22;12278;53.058;9.028;2024-03-22T08:03:07;10.90;99.90
24103;DHT22;12278;53.058;9.028;2024-03-22T08:07:08;10.90;99.90
24103;DHT22;12278;53.058;9.028;2024-03-22T08:11:08;10.90;99.90
24103;DHT22;12278;53.058;9.028;2024-03-22T08:15:09;10.90;99.90
24103;DHT22;12278;53.058;9.028;2024-03-22T08:19:10;10.90;99.90
24103;DHT22;12278;53.058;9.028;2024-03-22T08:23:11;10.90;99.90
24103;DHT22;12278;53.058;9.028;2024-03-22T08:27:11;11.00;99.90
24103;DHT22;12278;53.058;9.028;2024-03-22T08:31:13;10.90;99.90
24103;DHT22;12278;53.058;9.028;2024-03-22T08:35:13;10.90;99.90
24103;DHT22;12278;53.058;9.028;2024-03-22T08:39:14;11.00;99.90
24103;DHT22;12278;53.058;9.028;2024-03-22T08:43:16;11.20;99.90
24103;DHT22;12278;53.058;9.028;2024-03-22T08:47:16;11.20;99.90
24103;DHT22;12278;53.058;9.028;2024-03-22T08:51:17;11.20;99.90
24103;DHT22;12278;53.058;9.028;2024-03-22T08:55:18;11.20;99.90
24103;DHT22;12278;53.058;9.028;2024-03-22T08:59:19;11.20;99.90
24103;DHT22;12278;53.058;9.028;2024-03-22T09:03:20;11.20;99.90
24103;DHT22;12278;53.058;9.028;2024-03-22T09:07:21;11.20;99.90
24103;DHT22;12278;53.058;9.028;2024-03-22T09:11:24;11.20;99.90
24103;DHT22;12278;53.058;9.028;2024-03-22T09:15:25;11.20;99.90
24103;DHT22;12278;53.058;9.028;2024-03-22T09:19:26;11.20;99.90
24103;DHT22;12278;53.058;9.028;2024-03-22T09:23:27;11.30;99.90
24103;DHT22;12278;53.058;9.028;2024-03-22T09:27:27;11.40;99.90
24103;DHT22;12278;53.058;9.028;2024-03-22T09:31:28;11.40;99.90
24103;DHT22;12278;53.058;9.028;2024-03-22T09:35:28;11.40;99.90
24103;DHT22;12278;53.058;9.028;2024-03-22T09:39:29;11.30;99.90
24103;DHT22;12278;53.058;9.028;2024-03-22T09:43:31;11.30;99.90
24103;DHT22;12278;53.058;9.028;2024-03-22T09:47:33;11.30;99.90
24103;DHT22;12278;53.058;9.028;2024-03-22T09:51:34;11.30;99.90
24103;DHT22;12278;53.058;9.028;2024-03-22T09:55:36;11.30;99.90
24103;DHT22;12278;53.058;9.028;2024-03-22T09:59:38;11.40;99.90
24103;DHT22;12278;53.058;9.028;2024-03-22T10:03:38;11.40;99.90
24103;DHT22;12278;53.058;9.028;2024-03-22T10:07:40;11.30;99.90
24103;DHT22;12278;53.058;9.028;2024-03-22T10:11:40;11.40;99.90
24103;DHT22;12278;53.058;9.028;2024-03-22T10:15:41;11.40;99.90
24103;DHT22;12278;53.058;9.028;2024-03-22T10:19:42;11.30;99.90
24103;DHT22;12278;53.058;9.028;2024-03-22T10:23:42;11.30;99.90
24103;DHT22;12278;53.058;9.028;2024-03-22T10:27:44;11.10;99.90
24103;DHT22;12278;53.058;9.028;2024-03-22T10:31:45;11.10;99.90
24103;DHT22;12278;53.058;9.028;2024-03-22T10:35:51;11.10;99.90
24103;DHT22;12278;53.058;9.028;2024-03-22T10:39:54;10.90;99.90
24103;DHT22;12278;53.058;9.028;2024-03-22T10:43:56;10.80;99.90
24103;DHT22;12278;53.058;9.028;2024-03-22T10:47:58;10.90;99.90
24103;DHT22;12278;53.058;9.028;2024-03-22T10:52:02;10.90;99.90
24103;DHT22;12278;53.058;9.028;2024-03-22T10:56:04;10.80;99.90
24103;DHT22;12278;53.058;9.028;2024-03-22T11:00:10;10.80;99.90
24103;DHT22;12278;53.058;9.028;2024-03-22T11:04:10;11.00;99.90
24103;DHT22;12278;53.058;9.028;2024-03-22T11:08:11;11.10;99.90
24103;DHT22;12278;53.058;9.028;2024-03-22T11:12:13;11.10;99.90
24103;DHT22;12278;53.058;9.028;2024-03-22T11:16:14;10.90;99.90
24103;DHT22;12278;53.058;9.028;2024-03-22T11:20:15;11.00;99.90
24103;DHT22;12278;53.058;9.028;2024-03-22T11:24:16;11.10;99.90
24103;DHT22;12278;53.058;9.028;2024-03-22T11:28:16;11.10;99.90
24103;DHT22;12278;53.058;9.028;2024-03-22T11:32:18;11.20;99.90
24103;DHT22;12278;53.058;9.028;2024-03-22T11:36:18;11.30;99.90
24103;DHT22;12278;53.058;9.028;2024-03-22T11:40:19;11.40;99.90
24103;DHT22;12278;53.058;9.028;2024-03-22T11:44:22;11.20;99.90
24103;DHT22;12278;53.058;9.028;2024-03-22T11:48:22;11.10;99.90
24103;DHT22;12278;53.058;9.028;2024-03-22T11:52:27;11.20;99.90
24103;DHT22;12278;53.058;9.028;2024-03-22T11:56:27;11.20;99.90
24103;DHT22;12278;53.058;9.028;2024-03-22T12:00:28;11.30;99.90
24103;DHT22;12278;53.058;9.028;2024-03-22T12:04:29;11.30;99.90
24103;DHT22;12278;53.058;9.028;2024-03-22T12:08:29;11.10;99.90
24103;DHT22;12278;53.058;9.028;2024-03-22T12:12:30;11.30;99.90
24103;DHT22;12278;53.058;9.028;2024-03-22T12:16:31;11.20;99.90
24103;DHT22;12278;53.058;9.028;2024-03-22T12:20:32;11.20;99.90
24103;DHT22;12278;53.058;9.028;2024-03-22T12:24:33;11.30;99.90
24103;DHT22;12278;53.058;9.028;2024-03-22T12:28:33;11.30;99.90
24103;DHT22;12278;53.058;9.028;2024-03-22T12:32:34;11.30;99.90
24103;DHT22;12278;53.058;9.028;2024-03-22T12:36:35;11.30;99.90
24103;DHT22;12278;53.058;9.028;2024-03-22T12:40:35;11.30;99.90
24103;DHT22;12278;53.058;9.028;2024-03-22T12:44:36;11.30;99.90
24103;DHT22;12278;53.058;9.028;2024-03-22T12:48:37;11.10;99.90
24103;DHT22;12278;53.058;9.028;2024-03-22T12:52:37;11.10;99.90
24103;DHT22;12278;53.058;9.028;2024-03-22T12:56:38;11.10;99.90
24103;DHT22;12278;53.058;9.028;2024-03-22T13:00:39;11.10;99.90
24103;DHT22;12278;53.058;9.028;2024-03-22T13:04:40;11.20;99.90
24103;DHT22;12278;53.058;9.028;2024-03-22T13:08:40;11.20;99.90
24103;DHT22;12278;53.058;9.028;2024-03-22T13:12:41;11.20;99.90
24103;DHT22;12278;53.058;9.028;2024-03-22T13:16:42;11.20;99.90
24103;DHT22;12278;53.058;9.028;2024-03-22T13:20:42;11.20;99.90
24103;DHT22;12278;53.058;9.028;2024-03-22T13:24:43;11.20;99.90
24103;DHT22;12278;53.058;9.028;2024-03-22T13:28:44;11.20;99.90
24103;DHT22;12278;53.058;9.028;2024-03-22T13:32:45;11.20;99.90
24103;DHT22;12278;53.058;9.028;2024-03-22T13:36:45;11.20;99.90
24103;DHT22;12278;53.058;9.028;2024-03-22T13:40:55;11.20;99.90
24103;DHT22;12278;53.058;9.028;2024-03-22T13:44:56;11.20;99.90
24103;DHT22;12278;53.058;9.028;2024-03-22T13:49:00;11.30;99.90
24103;DHT22;12278;53.058;9.028;2024-03-22T13:53:01;11.40;99.90
24103;DHT22;12278;53.058;9.028;2024-03-22T13:57:02;11.40;99.90
24103;DHT22;12278;53.058;9.028;2024-03-22T14:01:03;11.50;99.90
24103;DHT22;12278;53.058;9.028;2024-03-22T14:05:04;11.40;99.90
24103;DHT22;12278;53.058;9.028;2024-03-22T14:09:04;11.40;99.90
24103;DHT22;12278;53.058;9.028;2024-03-22T14:13:05;11.50;99.90
24103;DHT22;12278;53.058;9.028;2024-03-22T14:17:08;11.40;99.90
24103;DHT22;12278;53.058;9.028;2024-03-22T14:21:08;11.40;99.90
24103;DHT22;12278;53.058;9.028;2024-03-22T14:25:09;11.40;99.90
24103;DHT22;12278;53.058;9.028;2024-03-22T14:29:11;11.50;99.90
24103;DHT22;12278;53.058;9.028;2024-03-22T14:33:12;11.40;99.90
24103;DHT22;12278;53.058;9.028;2024-03-22T14:37:12;11.40;99.90
24103;DHT22;12278;53.058;9.028;2024-03-22T14:41:13;11.30;99.90
24103;DHT22;12278;53.058;9.028;2024-03-22T14:45:14;11.50;99.90
24103;DHT22;12278;53.058;9.028;2024-03-22T14:49:20;11.50;99.90
24103;DHT22;12278;53.058;9.028;2024-03-22T14:53:21;11.60;99.90
24103;DHT22;12278;53.058;9.028;2024-03-22T14:57:22;11.50;99.90
24103;DHT22;12278;53.058;9.028;2024-03-22T15:01:23;11.60;99.90
24103;DHT22;12278;53.058;9.028;2024-03-22T15:05:23;11.40;99.90
24103;DHT22;12278;53.058;9.028;2024-03-22T15:09:24;11.20;99.90
24103;DHT22;12278;53.058;9.028;2024-03-22T15:13:25;11.10;99.90
24103;DHT22;12278;53.058;9.028;2024-03-22T15:17:25;10.90;99.90
24103;DHT22;12278;53.058;9.028;2024-03-22T15:21:26;10.90;99.90
24103;DHT22;12278;53.058;9.028;2024-03-22T15:25:27;10.80;99.90
24103;DHT22;12278;53.058;9.028;2024-03-22T15:29:27;10.60;99.90
24103;DHT22;12278;53.058;9.028;2024-03-22T15:33:28;10.50;99.90
24103;DHT22;12278;53.058;9.028;2024-03-22T15:37:29;10.40;99.90
24103;DHT22;12278;53.058;9.028;2024-03-22T15:41:29;10.20;99.90
24103;DHT22;12278;53.058;9.028;2024-03-22T15:45:30;10.10;99.90
24103;DHT22;12278;53.058;9.028;2024-03-22T15:49:33;10.20;99.90
24103;DHT22;12278;53.058;9.028;2024-03-22T15:53:34;10.20;99.90
24103;DHT22;12278;53.058;9.028;2024-03-22T15:57:35;10.20;99.90
24103;DHT22;12278;53.058;9.028;2024-03-22T16:01:35;10.10;99.90
24103;DHT22;12278;53.058;9.028;2024-03-22T16:05:36;10.00;99.90
24103;DHT22;12278;53.058;9.028;2024-03-22T16:09:38;9.90;99.90
24103;DHT22;12278;53.058;9.028;2024-03-22T16:13:38;9.70;99.90
24103;DHT22;12278;53.058;9.028;2024-03-22T16:17:39;9.70;99.90
24103;DHT22;12278;53.058;9.028;2024-03-22T16:21:41;9.70;99.90
24103;DHT22;12278;53.058;9.028;2024-03-22T16:25:42;9.80;99.90
24103;DHT22;12278;53.058;9.028;2024-03-22T16:29:43;9.80;99.90
24103;DHT22;12278;53.058;9.028;2024-03-22T16:33:43;9.80;99.90
24103;DHT22;12278;53.058;9.028;2024-03-22T16:37:44;9.80;99.90
24103;DHT22;12278;53.058;9.028;2024-03-22T16:41:45;9.70;99.90
24103;DHT22;12278;53.058;9.028;2024-03-22T16:45:46;9.70;99.90
24103;DHT22;12278;53.058;9.028;2024-03-22T16:49:47;9.70;99.90
24103;DHT22;12278;53.058;9.028;2024-03-22T16:53:47;9.60;99.90
24103;DHT22;12278;53.058;9.028;2024-03-22T16:57:48;9.60;99.90
24103;DHT22;12278;53.058;9.028;2024-03-22T17:01:51;9.60;99.90
24103;DHT22;12278;53.058;9.028;2024-03-22T17:05:51;9.60;99.90
24103;DHT22;12278;53.058;9.028;2024-03-22T17:09:52;9.60;99.90
24103;DHT22;12278;53.058;9.028;2024-03-22T17:13:53;9.60;99.90
24103;DHT22;12278;53.058;9.028;2024-03-22T17:17:53;9.60;99.90
24103;DHT22;12278;53.058;9.028;2024-03-22T17:21:54;9.60;99.90
24103;DHT22;12278;53.058;9.028;2024-03-22T17:25:59;9.50;99.90
24103;DHT22;12278;53.058;9.028;2024-03-22T17:29:59;9.50;99.90
24103;DHT22;12278;53.058;9.028;2024-03-22T17:34:00;9.40;99.90
24103;DHT22;12278;53.058;9.028;2024-03-22T17:38:01;9.40;99.90
24103;DHT22;12278;53.058;9.028;2024-03-22T17:42:02;9.50;99.90
24103;DHT22;12278;53.058;9.028;2024-03-22T17:46:03;9.50;99.90
24103;DHT22;12278;53.058;9.028;2024-03-22T17:50:06;9.50;99.90
24103;DHT22;12278;53.058;9.028;2024-03-22T17:54:07;9.40;99.90
24103;DHT22;12278;53.058;9.028;2024-03-22T17:58:07;9.40;99.90
24103;DHT22;12278;53.058;9.028;2024-03-22T18:02:08;9.40;99.90
24103;DHT22;12278;53.058;9.028;2024-03-22T18:06:08;9.40;99.90
24103;DHT22;12278;53.058;9.028;2024-03-22T18:10:09;9.40;99.90
24103;DHT22;12278;53.058;9.028;2024-03-22T18:14:10;9.40;99.90
24103;DHT22;12278;53.058;9.028;2024-03-22T18:18:10;9.40;99.90
24103;DHT22;12278;53.058;9.028;2024-03-22T18:22:11;9.40;99.90
24103;DHT22;12278;53.058;9.028;2024-03-22T18:26:11;9.40;99.90
24103;DHT22;12278;53.058;9.028;2024-03-22T18:30:12;9.50;99.90
24103;DHT22;12278;53.058;9.028;2024-03-22T18:34:12;9.50;99.90
24103;DHT22;12278;53.058;9.028;2024-03-22T18:38:13;9.40;99.90
24103;DHT22;12278;53.058;9.028;2024-03-22T18:42:13;9.40;99.90
24103;DHT22;12278;53.058;9.028;2024-03-22T18:46:14;9.50;99.90
24103;DHT22;12278;53.058;9.028;2024-03-22T18:50:15;9.40;99.90
24103;DHT22;12278;53.058;9.028;2024-03-22T18:54:15;9.40;99.90
24103;DHT22;12278;53.058;9.028;2024-03-22T18:58:16;9.30;99.90
24103;DHT22;12278;53.058;9.028;2024-03-22T19:02:17;9.40;99.90
24103;DHT22;12278;53.058;9.028;2024-03-22T19:06:17;9.20;99.90
24103;DHT22;12278;53.058;9.028;2024-03-22T19:10:19;9.10;99.90
24103;DHT22;12278;53.058;9.028;2024-03-22T19:14:19;9.10;99.90
24103;DHT22;12278;53.058;9.028;2024-03-22T19:18:20;9.10;99.90
24103;DHT22;12278;53.058;9.028;2024-03-22T19:22:21;9.10;99.90
24103;DHT22;12278;53.058;9.028;2024-03-22T19:26:22;9.00;99.90
24103;DHT22;12278;53.058;9.028;2024-03-22T19:30:22;9.00;99.90
24103;DHT22;12278;53.058;9.028;2024-03-22T19:34:23;8.90;99.90
24103;DHT22;12278;53.058;9.028;2024-03-22T19:38:24;8.90;99.90
24103;DHT22;12278;53.058;9.028;2024-03-22T19:42:24;8.90;99.90
24103;DHT22;12278;53.058;9.028;2024-03-22T19:46:25;8.90;99.90
24103;DHT22;12278;53.058;9.028;2024-03-22T19:50:26;8.80;99.90
24103;DHT22;12278;53.058;9.028;2024-03-22T19:54:27;8.80;99.90
24103;DHT22;12278;53.058;9.028;2024-03-22T19:58:28;8.80;99.90
24103;DHT22;12278;53.058;9.028;2024-03-22T20:02:29;8.80;99.90
24103;DHT22;12278;53.058;9.028;2024-03-22T20:06:29;8.80;99.90
24103;DHT22;12278;53.058;9.028;2024-03-22T20:10:30;8.70;99.90
24103;DHT22;12278;53.058;9.028;2024-03-22T20:14:31;8.70;99.90
24103;DHT22;12278;53.058;9.028;2024-03-22T20:18:33;8.70;99.90
24103;DHT22;12278;53.058;9.028;2024-03-22T20:22:34;8.70;99.90
24103;DHT22;12278;53.058;9.028;2024-03-22T20:26:34;8.60;99.90
24103;DHT22;12278;53.058;9.028;2024-03-22T20:30:35;8.60;99.90
24103;DHT22;12278;53.058;9.028;2024-03-22T20:34:36;8.50;99.90
24103;DHT22;12278;53.058;9.028;2024-03-22T20:38:37;8.50;99.90
